createdAt,value
2023-11-11T00:00:13.096Z,96612.69
2023-11-11T00:02:42.356Z,96619.53
2023-11-11T00:05:10.788Z,96622.50
2023-11-11T00:07:41.743Z,96617.09
2023-11-11T00:10:12.800Z,96608.69
2023-11-11T00:12:41.762Z,96599.84
2023-11-11T00:15:18.626Z,96601.00
2023-11-11T00:17:52.090Z,96590.44
2023-11-11T00:20:24.782Z,96583.72
2023-11-11T00:22:55.087Z,96587.00
2023-11-11T00:25:25.694Z,96582.75
2023-11-11T00:27:54.052Z,96575.47
2023-11-11T00:30:24.031Z,96571.38
2023-11-11T00:32:55.513Z,96570.75
2023-11-11T00:35:23.616Z,96576.03
2023-11-11T00:37:51.790Z,96574.78
2023-11-11T00:40:21.675Z,96562.44
2023-11-11T00:42:52.641Z,96570.22
2023-11-11T00:45:23.745Z,96575.38
2023-11-11T00:47:53.297Z,96575.47
2023-11-11T00:50:21.376Z,96574.94
2023-11-11T00:52:49.151Z,96570.66
2023-11-11T00:55:21.421Z,96565.50
2023-11-11T00:57:52.052Z,96561.09
2023-11-11T01:00:23.843Z,96561.38
2023-11-11T01:02:53.744Z,96563.66
2023-11-11T01:05:22.460Z,96555.69
2023-11-11T01:07:51.839Z,96559.53
2023-11-11T01:10:24.138Z,96542.56
2023-11-11T01:12:53.912Z,96543.13
2023-11-11T01:15:22.235Z,96540.56
2023-11-11T01:17:50.683Z,96535.59
2023-11-11T01:20:22.272Z,96539.56
2023-11-11T01:22:51.500Z,96541.19
2023-11-11T01:25:19.640Z,96536.47
2023-11-11T01:27:50.248Z,96531.00
2023-11-11T01:30:21.572Z,96522.44
2023-11-11T01:32:49.426Z,96517.75
2023-11-11T01:35:17.260Z,96523.09
2023-11-11T01:37:47.116Z,96512.19
2023-11-11T01:40:16.508Z,96500.56
2023-11-11T01:42:51.484Z,96506.06
2023-11-11T01:45:20.993Z,96505.03
2023-11-11T01:47:49.171Z,96501.50
2023-11-11T01:50:20.811Z,96498.78
2023-11-11T01:52:54.631Z,96505.34
2023-11-11T01:55:24.895Z,96496.19
2023-11-11T01:57:52.901Z,96501.78
2023-11-11T02:00:23.162Z,96494.69
2023-11-11T02:02:53.300Z,96488.91
2023-11-11T02:05:22.308Z,96496.91
2023-11-11T02:07:53.238Z,96499.63
2023-11-11T02:10:22.632Z,96491.50
2023-11-11T02:12:51.859Z,96497.06
2023-11-11T02:15:23.450Z,96489.34
2023-11-11T02:17:51.468Z,96488.75
2023-11-11T02:20:19.828Z,96484.91
2023-11-11T02:22:48.751Z,96486.59
2023-11-11T02:25:19.520Z,96481.97
2023-11-11T02:27:48.150Z,96485.69
2023-11-11T02:30:23.359Z,96477.78
2023-11-11T02:32:52.896Z,96466.69
2023-11-11T02:35:21.880Z,96464.50
2023-11-11T02:37:49.621Z,96468.53
2023-11-11T02:40:19.160Z,96466.81
2023-11-11T02:42:48.013Z,96464.63
2023-11-11T02:45:16.175Z,96455.88
2023-11-11T02:47:45.391Z,96452.59
2023-11-11T02:50:13.639Z,96442.75
2023-11-11T02:52:42.736Z,96442.88
2023-11-11T02:55:12.058Z,96446.03
2023-11-11T02:57:43.418Z,96447.31
2023-11-11T03:00:16.317Z,96442.03
2023-11-11T03:02:44.444Z,96438.91
2023-11-11T03:05:13.563Z,96435.84
2023-11-11T03:07:41.972Z,96439.63
2023-11-11T03:10:11.477Z,96443.47
2023-11-11T03:12:41.076Z,96437.19
2023-11-11T03:15:10.124Z,96426.78
2023-11-11T03:17:38.086Z,96435.50
2023-11-11T03:20:07.205Z,96422.09
2023-11-11T03:22:35.000Z,96423.81
2023-11-11T03:25:02.836Z,96427.44
2023-11-11T03:27:30.827Z,96422.38
2023-11-11T03:30:00.277Z,96422.09
2023-11-11T03:32:28.306Z,96420.69
2023-11-11T03:34:56.062Z,96419.09
2023-11-11T03:37:23.827Z,96413.91
2023-11-11T03:39:52.518Z,96409.25
2023-11-11T03:42:20.413Z,96406.88
2023-11-11T03:44:48.432Z,96405.41
2023-11-11T03:47:17.873Z,96404.50
2023-11-11T03:49:45.627Z,96401.09
2023-11-11T03:52:13.410Z,96414.56
2023-11-11T03:54:41.217Z,96410.56
2023-11-11T03:57:09.061Z,96400.66
2023-11-11T03:59:37.001Z,96406.78
2023-11-11T04:02:04.881Z,96405.16
2023-11-11T04:04:35.076Z,96398.41
2023-11-11T04:07:03.147Z,96413.41
2023-11-11T04:09:34.947Z,96413.81
2023-11-11T04:12:02.918Z,96415.53
2023-11-11T04:14:30.931Z,96416.81
2023-11-11T04:16:59.140Z,96412.94
2023-11-11T04:19:27.033Z,96407.75
2023-11-11T04:21:56.166Z,96415.09
2023-11-11T04:24:24.070Z,96415.63
2023-11-11T04:26:51.833Z,96413.94
2023-11-11T04:29:19.687Z,96422.25
2023-11-11T04:31:48.532Z,96424.16
2023-11-11T04:34:16.628Z,96421.31
2023-11-11T04:36:44.876Z,96423.28
2023-11-11T04:39:14.683Z,96434.53
2023-11-11T04:41:43.799Z,96436.66
2023-11-11T04:44:11.760Z,96438.06
2023-11-11T04:46:39.817Z,96443.47
2023-11-11T04:49:07.549Z,96447.09
2023-11-11T04:51:36.559Z,96448.31
2023-11-11T04:54:05.157Z,96452.72
2023-11-11T04:56:34.581Z,96450.56
2023-11-11T04:59:04.705Z,96452.31
2023-11-11T05:01:32.549Z,96467.47
2023-11-11T05:04:01.663Z,96475.06
2023-11-11T05:06:32.117Z,96474.94
2023-11-11T05:08:59.881Z,96478.78
2023-11-11T05:11:30.372Z,96474.75
2023-11-11T05:14:00.422Z,96490.91
2023-11-11T05:16:40.435Z,96493.13
2023-11-11T05:19:08.800Z,96490.75
2023-11-11T05:21:37.951Z,96503.75
2023-11-11T05:24:07.132Z,96493.81
2023-11-11T05:26:34.875Z,96510.75
2023-11-11T05:29:05.330Z,96513.72
2023-11-11T05:31:33.205Z,96522.00
2023-11-11T05:34:02.033Z,96513.13
2023-11-11T05:36:30.278Z,96542.69
2023-11-11T05:39:01.081Z,96549.50
2023-11-11T05:41:33.395Z,96559.09
2023-11-11T05:44:07.262Z,96562.81
2023-11-11T05:46:40.093Z,96571.72
2023-11-11T05:49:08.422Z,96576.25
2023-11-11T05:51:36.860Z,96576.16
2023-11-11T05:54:04.971Z,96573.03
2023-11-11T05:56:32.758Z,96569.88
2023-11-11T05:59:00.738Z,96597.75
2023-11-11T06:01:29.879Z,96610.66
2023-11-11T06:03:57.780Z,96604.13
2023-11-11T06:06:26.882Z,96611.56
2023-11-11T06:08:54.925Z,96626.19
2023-11-11T06:11:23.676Z,96632.28
2023-11-11T06:13:51.743Z,96642.66
2023-11-11T06:16:20.849Z,96649.41
2023-11-11T06:18:50.012Z,96657.56
2023-11-11T06:21:18.442Z,96637.19
2023-11-11T06:23:46.758Z,96659.25
2023-11-11T06:26:14.530Z,96675.13
2023-11-11T06:28:42.960Z,96681.75
2023-11-11T06:31:10.756Z,96692.13
2023-11-11T06:33:38.717Z,96699.47
2023-11-11T06:36:11.305Z,96716.91
2023-11-11T06:38:39.154Z,96699.31
2023-11-11T06:41:06.310Z,96721.63
2023-11-11T06:43:34.303Z,96728.63
2023-11-11T06:46:02.185Z,96746.59
2023-11-11T06:48:30.295Z,96735.88
2023-11-11T06:50:58.091Z,96755.59
2023-11-11T06:53:27.480Z,96764.41
2023-11-11T06:55:56.577Z,96766.66
2023-11-11T06:58:25.066Z,96773.84
2023-11-11T07:00:53.111Z,96780.16
2023-11-11T07:03:21.021Z,96786.69
2023-11-11T07:05:48.876Z,96785.56
2023-11-11T07:08:16.725Z,96795.47
2023-11-11T07:10:46.677Z,96800.22
2023-11-11T07:13:16.975Z,96810.25
2023-11-11T07:15:45.017Z,96808.06
2023-11-11T07:18:13.383Z,96824.56
2023-11-11T07:20:41.340Z,96834.47
2023-11-11T07:23:09.471Z,96833.78
2023-11-11T07:25:39.153Z,96846.41
2023-11-11T07:28:08.353Z,96849.53
2023-11-11T07:30:39.653Z,96843.66
2023-11-11T07:33:08.182Z,96862.94
2023-11-11T07:35:36.172Z,96870.16
2023-11-11T07:38:05.508Z,96876.97
2023-11-11T07:40:33.381Z,96879.00
2023-11-11T07:43:01.269Z,96880.59
2023-11-11T07:45:30.465Z,96893.88
2023-11-11T07:47:58.656Z,96893.88
2023-11-11T07:50:26.705Z,96897.22
2023-11-11T07:52:56.499Z,96901.84
2023-11-11T07:55:24.886Z,96901.38
2023-11-11T08:00:25.612Z,96914.97
2023-11-11T08:02:55.169Z,96918.28
2023-11-11T08:05:24.730Z,96913.09
2023-11-11T08:07:53.375Z,96922.63
2023-11-11T08:10:22.818Z,96923.59
2023-11-11T08:12:51.861Z,96929.91
2023-11-11T08:15:20.933Z,96927.66
2023-11-11T08:17:49.510Z,96924.69
2023-11-11T08:20:19.804Z,96931.44
2023-11-11T08:22:48.442Z,96926.47
2023-11-11T08:25:16.677Z,96931.25
2023-11-11T08:27:45.704Z,96933.81
2023-11-11T08:30:14.650Z,96947.13
2023-11-11T08:32:43.552Z,96943.28
2023-11-11T08:35:16.823Z,96947.13
2023-11-11T08:37:46.980Z,96965.22
2023-11-11T08:40:18.283Z,96954.63
2023-11-11T08:42:47.538Z,96969.50
2023-11-11T08:45:15.558Z,96965.66
2023-11-11T08:47:46.140Z,96964.09
2023-11-11T08:50:15.077Z,96977.75
2023-11-11T08:52:43.961Z,96986.56
2023-11-11T08:55:14.065Z,96992.44
2023-11-11T08:57:42.161Z,96989.28
2023-11-11T09:00:11.501Z,96991.88
2023-11-11T09:02:40.160Z,97002.34
2023-11-11T09:05:08.417Z,96998.41
2023-11-11T09:07:36.326Z,96999.97
2023-11-11T09:10:05.822Z,97006.34
2023-11-11T09:12:35.685Z,97015.44
2023-11-11T09:15:06.440Z,97021.47
2023-11-11T09:17:34.666Z,97028.03
2023-11-11T09:20:02.522Z,97021.41
2023-11-11T09:22:30.779Z,97016.50
2023-11-11T09:24:59.106Z,97023.72
2023-11-11T09:27:27.513Z,97022.75
2023-11-11T09:29:56.744Z,97023.50
2023-11-11T09:32:24.494Z,97029.88
2023-11-11T09:34:52.843Z,97018.94
2023-11-11T09:37:21.269Z,97029.09
2023-11-11T09:39:50.659Z,97035.84
2023-11-11T09:42:18.505Z,97046.16
2023-11-11T09:47:24.148Z,97050.22
2023-11-11T09:49:52.136Z,97058.69
2023-11-11T09:52:21.231Z,97066.41
2023-11-11T09:54:52.096Z,97057.06
2023-11-11T09:57:22.745Z,97066.72
2023-11-11T09:59:53.707Z,97071.44
2023-11-11T10:02:24.932Z,97068.69
2023-11-11T10:04:54.319Z,97057.59
2023-11-11T10:07:23.590Z,97072.63
2023-11-11T10:09:51.913Z,97071.59
2023-11-11T10:12:19.864Z,97068.53
2023-11-11T10:14:50.170Z,97066.53
2023-11-11T10:17:18.191Z,97073.47
2023-11-11T10:19:54.688Z,97073.34
2023-11-11T10:22:27.689Z,97079.69
2023-11-11T10:24:57.766Z,97081.94
2023-11-11T10:27:25.944Z,97080.19
2023-11-11T10:29:54.042Z,97078.38
2023-11-11T10:32:21.879Z,97071.50
2023-11-11T10:34:51.067Z,97075.34
2023-11-11T10:37:20.999Z,97083.78
2023-11-11T10:39:49.869Z,97076.34
2023-11-11T10:42:20.061Z,97081.03
2023-11-11T10:44:48.678Z,97086.03
2023-11-11T10:47:17.204Z,97084.97
2023-11-11T10:49:47.191Z,97078.41
2023-11-11T10:52:20.067Z,97071.44
2023-11-11T10:54:50.411Z,97078.19
2023-11-11T10:57:19.434Z,97068.63
2023-11-11T10:59:49.979Z,97081.06
2023-11-11T11:02:17.875Z,97071.59
2023-11-11T11:04:50.238Z,97065.75
2023-11-11T11:07:26.063Z,97079.44
2023-11-11T11:10:02.761Z,97080.97
2023-11-11T11:12:42.456Z,97075.22
2023-11-11T11:15:15.811Z,97088.63
2023-11-11T11:17:45.910Z,97089.06
2023-11-11T11:20:16.204Z,97084.31
2023-11-11T11:22:49.066Z,97094.84
2023-11-11T11:25:40.564Z,97102.34
2023-11-11T11:28:21.336Z,97088.53
2023-11-11T11:30:52.330Z,97087.38
2023-11-11T11:33:25.798Z,97094.22
2023-11-11T11:35:57.792Z,97093.91
2023-11-11T11:38:32.956Z,97102.81
2023-11-11T11:41:06.897Z,97090.94
2023-11-11T11:43:36.504Z,97106.38
2023-11-11T11:46:07.519Z,97108.34
2023-11-11T11:48:39.058Z,97106.88
2023-11-11T11:51:10.063Z,97116.09
2023-11-11T11:53:43.083Z,97116.75
2023-11-11T11:56:15.550Z,97118.81
2023-11-11T11:58:47.995Z,97119.09
2023-11-11T12:01:27.966Z,97119.00
2023-11-11T12:03:57.453Z,97132.13
2023-11-11T12:06:26.242Z,97124.66
2023-11-11T12:08:56.975Z,97132.66
2023-11-11T12:11:28.527Z,97134.75
2023-11-11T12:13:57.925Z,97139.75
2023-11-11T12:16:42.332Z,97134.22
2023-11-11T12:19:14.948Z,97129.34
2023-11-11T12:21:44.804Z,97147.41
2023-11-11T12:24:15.744Z,97137.56
2023-11-11T12:26:44.072Z,97150.75
2023-11-11T12:29:12.529Z,97149.47
2023-11-11T12:31:47.710Z,97148.16
2023-11-11T12:34:17.318Z,97148.22
2023-11-11T12:36:47.076Z,97153.63
2023-11-11T12:39:16.962Z,97156.81
2023-11-11T12:41:49.956Z,97157.78
2023-11-11T12:44:18.592Z,97171.72
2023-11-11T12:46:50.475Z,97165.63
2023-11-11T12:49:20.512Z,97180.03
2023-11-11T12:51:49.106Z,97175.53
2023-11-11T12:54:19.647Z,97180.63
2023-11-11T12:56:51.007Z,97192.53
2023-11-11T12:59:18.989Z,97194.75
2023-11-11T13:01:46.881Z,97191.16
2023-11-11T13:04:16.319Z,97197.72
2023-11-11T13:06:44.509Z,97192.75
2023-11-11T13:09:15.811Z,97186.78
2023-11-11T13:11:47.842Z,97192.22
2023-11-11T13:14:16.465Z,97192.78
2023-11-11T13:16:45.894Z,97190.75
2023-11-11T13:19:14.954Z,97197.84
2023-11-11T13:21:42.944Z,97179.09
2023-11-11T13:24:11.080Z,97192.47
2023-11-11T13:26:39.520Z,97193.22
2023-11-11T13:29:08.931Z,97189.69
2023-11-11T13:31:37.856Z,97184.53
2023-11-11T13:34:07.891Z,97190.34
2023-11-11T13:36:36.458Z,97187.81
2023-11-11T13:39:07.453Z,97187.56
2023-11-11T13:41:39.802Z,97194.75
2023-11-11T13:44:09.244Z,97187.91
2023-11-11T13:46:37.418Z,97187.34
2023-11-11T13:49:05.395Z,97186.38
2023-11-11T13:51:33.191Z,97192.69
2023-11-11T13:54:00.967Z,97190.97
2023-11-11T13:56:29.106Z,97175.66
2023-11-11T13:58:58.632Z,97194.81
2023-11-11T14:01:29.349Z,97195.41
2023-11-11T14:04:00.002Z,97192.25
2023-11-11T14:06:33.908Z,97200.50
2023-11-11T14:09:01.869Z,97198.56
2023-11-11T14:11:29.978Z,97195.22
2023-11-11T14:13:59.121Z,97202.53
2023-11-11T14:16:28.977Z,97195.75
2023-11-11T14:18:56.794Z,97192.25
2023-11-11T14:21:25.174Z,97190.19
2023-11-11T14:23:52.940Z,97206.09
2023-11-11T14:26:25.317Z,97214.53
2023-11-11T14:28:55.405Z,97202.69
2023-11-11T14:31:25.038Z,97215.69
2023-11-11T14:34:00.827Z,97226.69
2023-11-11T14:36:38.663Z,97219.91
2023-11-11T14:39:09.658Z,97222.38
2023-11-11T14:41:39.488Z,97231.50
2023-11-11T14:44:10.119Z,97230.25
2023-11-11T14:46:38.520Z,97229.41
2023-11-11T14:49:11.384Z,97229.22
2023-11-11T14:51:40.071Z,97230.44
2023-11-11T14:54:08.374Z,97238.16
2023-11-11T14:56:36.653Z,97245.69
2023-11-11T14:59:05.675Z,97242.72
2023-11-11T15:01:36.666Z,97248.13
2023-11-11T15:04:08.016Z,97258.13
2023-11-11T15:06:39.366Z,97260.91
2023-11-11T15:09:07.966Z,97253.00
2023-11-11T15:11:40.561Z,97251.84
2023-11-11T15:14:10.428Z,97264.72
2023-11-11T15:16:38.836Z,97262.22
2023-11-11T15:19:07.917Z,97253.47
2023-11-11T15:21:38.592Z,97256.41
2023-11-11T15:24:11.849Z,97259.19
2023-11-11T15:26:44.780Z,97263.81
2023-11-11T15:29:12.559Z,97250.59
2023-11-11T15:31:40.383Z,97255.13
2023-11-11T15:34:08.294Z,97253.34
2023-11-11T15:36:37.800Z,97263.53
2023-11-11T15:39:15.824Z,97267.84
2023-11-11T15:41:44.207Z,97266.94
2023-11-11T15:44:12.297Z,97276.88
2023-11-11T15:46:40.466Z,97276.69
2023-11-11T15:49:08.880Z,97276.56
2023-11-11T15:51:39.969Z,97273.28
2023-11-11T15:54:09.572Z,97275.13
2023-11-11T15:56:37.512Z,97276.94
2023-11-11T15:59:10.892Z,97279.19
2023-11-11T16:01:41.813Z,97270.59
2023-11-11T16:04:09.799Z,97277.81
2023-11-11T16:06:40.329Z,97287.31
2023-11-11T16:09:13.815Z,97285.06
2023-11-11T16:11:44.661Z,97292.63
2023-11-11T16:14:12.726Z,97297.94
2023-11-11T16:16:41.138Z,97302.91
2023-11-11T16:19:09.890Z,97305.38
2023-11-11T16:21:44.007Z,97309.88
2023-11-11T16:24:24.207Z,97313.91
2023-11-11T16:26:56.637Z,97317.75
2023-11-11T16:29:25.040Z,97317.53
2023-11-11T16:31:53.509Z,97319.13
2023-11-11T16:34:23.956Z,97323.63
2023-11-11T16:36:55.960Z,97321.25
2023-11-11T16:39:24.211Z,97308.16
2023-11-11T16:41:54.226Z,97318.19
2023-11-11T16:44:23.921Z,97315.50
2023-11-11T16:46:55.229Z,97322.50
2023-11-11T16:49:23.618Z,97315.91
2023-11-11T16:51:52.405Z,97327.44
2023-11-11T16:54:21.945Z,97327.44
2023-11-11T16:56:51.160Z,97329.81
2023-11-11T16:59:21.572Z,97337.34
2023-11-11T17:01:51.426Z,97332.16
2023-11-11T17:04:20.943Z,97340.50
2023-11-11T17:06:49.335Z,97340.25
2023-11-11T17:09:19.611Z,97343.22
2023-11-11T17:11:49.481Z,97340.63
2023-11-11T17:14:17.670Z,97336.41
2023-11-11T17:16:50.831Z,97347.72
2023-11-11T17:19:19.353Z,97352.00
2023-11-11T17:21:49.524Z,97349.50
2023-11-11T17:24:18.187Z,97347.59
2023-11-11T17:26:46.997Z,97348.66
2023-11-11T17:29:17.711Z,97359.50
2023-11-11T17:31:45.904Z,97352.50
2023-11-11T17:34:13.814Z,97359.22
2023-11-11T17:36:47.082Z,97358.34
2023-11-11T17:39:15.211Z,97350.69
2023-11-11T17:41:43.099Z,97364.66
2023-11-11T17:44:14.028Z,97356.09
2023-11-11T17:46:43.460Z,97360.59
2023-11-11T17:49:11.680Z,97356.97
2023-11-11T17:51:39.770Z,97357.91
2023-11-11T17:54:13.420Z,97358.34
2023-11-11T17:56:41.891Z,97363.31
2023-11-11T17:59:10.606Z,97361.72
2023-11-11T18:01:40.440Z,97376.00
2023-11-11T18:04:10.224Z,97375.28
2023-11-11T18:06:43.143Z,97377.13
2023-11-11T18:09:13.839Z,97370.56
2023-11-11T18:11:46.139Z,97379.03
2023-11-11T18:14:15.238Z,97375.94
2023-11-11T18:16:44.285Z,97370.63
2023-11-11T18:19:15.839Z,97377.84
2023-11-11T18:21:44.410Z,97385.53
2023-11-11T18:24:17.599Z,97391.72
2023-11-11T18:26:46.958Z,97388.78
2023-11-11T18:29:17.562Z,97389.25
2023-11-11T18:31:50.578Z,97387.00
2023-11-11T18:34:21.868Z,97389.91
2023-11-11T18:36:50.322Z,97388.78
2023-11-11T18:39:19.550Z,97383.16
2023-11-11T18:41:48.475Z,97390.31
2023-11-11T18:44:16.390Z,97390.66
2023-11-11T18:46:45.210Z,97391.88
2023-11-11T18:49:20.472Z,97399.97
2023-11-11T18:51:52.359Z,97387.81
2023-11-11T18:54:20.460Z,97402.47
2023-11-11T18:56:48.220Z,97400.25
2023-11-11T18:59:19.450Z,97407.91
2023-11-11T19:01:49.552Z,97411.84
2023-11-11T19:04:18.110Z,97406.97
2023-11-11T19:06:46.267Z,97408.41
2023-11-11T19:09:15.539Z,97408.28
2023-11-11T19:11:45.425Z,97410.28
2023-11-11T19:14:15.366Z,97416.34
2023-11-11T19:16:44.014Z,97410.88
2023-11-11T19:19:12.721Z,97423.06
2023-11-11T19:21:42.013Z,97419.25
2023-11-11T19:24:12.568Z,97416.75
2023-11-11T19:26:43.085Z,97422.03
2023-11-11T19:29:11.164Z,97426.34
2023-11-11T19:31:44.397Z,97431.75
2023-11-11T19:34:12.670Z,97421.69
2023-11-11T19:36:42.106Z,97430.59
2023-11-11T19:39:10.713Z,97429.41
2023-11-11T19:41:40.928Z,97434.81
2023-11-11T19:44:16.432Z,97429.28
2023-11-11T19:46:45.008Z,97436.03
2023-11-11T19:49:13.843Z,97435.75
2023-11-11T19:51:43.938Z,97433.50
2023-11-11T19:54:13.858Z,97432.22
2023-11-11T19:56:43.849Z,97435.63
2023-11-11T19:59:13.785Z,97426.78
2023-11-11T20:01:44.734Z,97435.16
2023-11-11T20:04:13.605Z,97436.94
2023-11-11T20:06:43.272Z,97442.63
2023-11-11T20:09:14.466Z,97442.50
2023-11-11T20:11:42.948Z,97438.34
2023-11-11T20:14:13.546Z,97444.03
2023-11-11T20:16:43.401Z,97448.56
2023-11-11T20:19:12.505Z,97453.31
2023-11-11T20:21:40.450Z,97449.47
2023-11-11T20:24:12.148Z,97447.47
2023-11-11T20:26:43.643Z,97455.34
2023-11-11T20:29:11.846Z,97449.06
2023-11-11T20:31:40.673Z,97452.78
2023-11-11T20:34:11.588Z,97448.56
2023-11-11T20:36:39.689Z,97447.59
2023-11-11T20:39:09.881Z,97451.09
2023-11-11T20:41:42.915Z,97454.94
2023-11-11T20:44:11.746Z,97447.00
2023-11-11T20:46:40.244Z,97453.81
2023-11-11T20:49:13.635Z,97440.47
2023-11-11T20:51:45.054Z,97451.31
2023-11-11T20:54:17.161Z,97456.34
2023-11-11T20:56:45.588Z,97454.91
2023-11-11T20:59:13.844Z,97457.41
2023-11-11T21:01:41.777Z,97461.25
2023-11-11T21:04:14.785Z,97466.75
2023-11-11T21:06:42.770Z,97459.53
2023-11-11T21:09:12.133Z,97458.59
2023-11-11T21:11:41.359Z,97447.38
2023-11-11T21:14:12.746Z,97449.81
2023-11-11T21:16:40.818Z,97454.09
2023-11-11T21:19:09.819Z,97454.63
2023-11-11T21:21:40.646Z,97451.44
2023-11-11T21:24:09.757Z,97457.78
2023-11-11T21:26:37.640Z,97455.97
2023-11-11T21:29:05.912Z,97453.13
2023-11-11T21:31:34.969Z,97446.03
2023-11-11T21:34:04.440Z,97445.13
2023-11-11T21:36:33.633Z,97447.38
2023-11-11T21:39:02.982Z,97448.97
2023-11-11T21:41:31.797Z,97447.38
2023-11-11T21:44:01.833Z,97442.91
2023-11-11T21:46:32.775Z,97433.38
2023-11-11T21:49:00.966Z,97439.97
2023-11-11T21:51:29.351Z,97437.59
2023-11-11T21:53:57.394Z,97432.59
2023-11-11T21:56:27.067Z,97432.72
2023-11-11T21:58:59.075Z,97432.44
2023-11-11T22:01:27.254Z,97425.44
2023-11-11T22:03:55.162Z,97424.53
2023-11-11T22:06:24.682Z,97422.56
2023-11-11T22:08:52.496Z,97431.13
2023-11-11T22:11:22.982Z,97430.34
2023-11-11T22:13:54.760Z,97425.06
2023-11-11T22:16:22.942Z,97423.47
2023-11-11T22:18:52.327Z,97418.72
2023-11-11T22:21:20.406Z,97412.84
2023-11-11T22:23:49.445Z,97411.06
2023-11-11T22:26:18.928Z,97408.81
2023-11-11T22:28:47.823Z,97417.13
2023-11-11T22:31:21.760Z,97409.63
2023-11-11T22:33:49.861Z,97414.44
2023-11-11T22:36:18.149Z,97413.78
2023-11-11T22:38:46.064Z,97407.47
2023-11-11T22:41:13.892Z,97412.66
2023-11-11T22:43:42.383Z,97408.81
2023-11-11T22:46:10.242Z,97395.72
2023-11-11T22:48:43.423Z,97399.81
2023-11-11T22:51:13.810Z,97400.47
2023-11-11T22:53:41.894Z,97399.16
2023-11-11T22:56:10.381Z,97393.25
2023-11-11T22:58:40.125Z,97397.44
2023-11-11T23:01:12.283Z,97393.47
2023-11-11T23:03:41.927Z,97394.03
2023-11-11T23:06:10.102Z,97393.75
2023-11-11T23:08:37.816Z,97399.03
2023-11-11T23:11:05.816Z,97401.09
2023-11-11T23:13:34.044Z,97403.78
2023-11-11T23:16:02.680Z,97400.25
2023-11-11T23:18:30.644Z,97391.50
2023-11-11T23:21:10.469Z,97382.47
2023-11-11T23:23:44.998Z,97385.41
2023-11-11T23:26:13.249Z,97387.91
2023-11-11T23:28:41.376Z,97381.31
2023-11-11T23:31:09.093Z,97384.50
2023-11-11T23:33:37.944Z,97385.41
2023-11-11T23:36:08.582Z,97392.41
2023-11-11T23:38:36.670Z,97390.28
2023-11-11T23:41:04.984Z,97399.78
2023-11-11T23:43:33.065Z,97399.66
2023-11-11T23:46:00.829Z,97399.53
2023-11-11T23:48:28.723Z,97394.25
2023-11-11T23:50:57.004Z,97399.28
2023-11-11T23:53:28.585Z,97405.25
2023-11-11T23:55:56.702Z,97403.94
2023-11-11T23:58:25.115Z,97398.06
